Terminal Aerodrome Forecast
Issued by NWS Cleveland, OH

Home | Current Version | Previous Version | Graphics & Text | Print | Product List | Glossary Off
Versions: 1 2 3 4 5 6 7 8 9 10 11 12 13 14 15 16 17 18 19 20 21 22 23 24 25 26

491
FTUS41 KCLE 290905 AAC
TAFCLE
TAF AMD
KCLE 290905Z 2909/3012 VRB03KT P6SM SCT016 BKN200
      TEMPO 2909/2910 BKN012
     FM291000 VRB03KT P6SM BKN010
      TEMPO 2910/2912 5SM BR OVC006
     FM291300 03005KT P6SM BKN012
     FM291700 05005KT P6SM BKN040
     FM292000 03008KT P6SM SCT045
     FM300200 VRB04KT P6SM SCT060 BKN150=

USA.gov is the U.S. government's official web portal to all federal, state and local government web resources and services.